FIN7NP EPGD-EFHK
Flight info
| Callsign | FIN7NP |
|---|---|
| Flight time | 1h 23m |
| Altitude | 38000 |
| Route | VAPOS N133 PENOR DCT ALAMI DCT EVADI Y370 DIVAM |
| Aircraft | A319/M-SDE3FGHIRWY/LB1 |
Departure
| Time | 2026-04-23 16:04 |
|---|---|
| Airport | Gdańsk Lech Wałęsa Airport (EPGD) |
Arrival
| Time | 2026-04-23 17:27 |
|---|---|
| Airport | Helsinki Vantaa Airport (EFHK) |
| Time | Latitude | Longitude | Altitude | Speed | Heading |
|---|---|---|---|---|---|
| 2026-04-23 15:48 | 54.38147 | 18.46504 | 460 ft | 0 kts | 23° |
| 2026-04-23 15:56 | 54.38125 | 18.46488 | 458 ft | 3 kts | 20° |
| 2026-04-23 15:57 | 54.38110 | 18.46480 | 460 ft | 2 kts | 355° |
| 2026-04-23 15:57 | 54.38099 | 18.46486 | 459 ft | 2 kts | 297° |
| 2026-04-23 15:57 | 54.38094 | 18.46503 | 457 ft | 2 kts | 295° |
| 2026-04-23 15:57 | 54.38093 | 18.46507 | 455 ft | 0 kts | 294° |
| 2026-04-23 15:59 | 54.38096 | 18.46495 | 456 ft | 3 kts | 294° |
| 2026-04-23 16:00 | 54.38104 | 18.46465 | 456 ft | 6 kts | 294° |
| 2026-04-23 16:00 | 54.38123 | 18.46389 | 460 ft | 7 kts | 293° |
| 2026-04-23 16:00 | 54.38144 | 18.46303 | 460 ft | 8 kts | 293° |
| 2026-04-23 16:00 | 54.38168 | 18.46208 | 458 ft | 9 kts | 292° |
| 2026-04-23 16:01 | 54.38169 | 18.46110 | 460 ft | 9 kts | 226° |
| 2026-04-23 16:01 | 54.38114 | 18.46059 | 459 ft | 9 kts | 221° |
| 2026-04-23 16:01 | 54.38103 | 18.45955 | 459 ft | 10 kts | 284° |
| 2026-04-23 16:01 | 54.38134 | 18.45823 | 455 ft | 14 kts | 293° |
| 2026-04-23 16:02 | 54.38135 | 18.45663 | 453 ft | 14 kts | 228° |
| 2026-04-23 16:02 | 54.38062 | 18.45600 | 455 ft | 10 kts | 204° |
| 2026-04-23 16:02 | 54.38013 | 18.45594 | 454 ft | 7 kts | 140° |
| 2026-04-23 16:02 | 54.37995 | 18.45661 | 456 ft | 3 kts | 112° |
| 2026-04-23 16:03 | 54.37994 | 18.45666 | 456 ft | 1 kts | 112° |
| 2026-04-23 16:03 | 54.37935 | 18.45907 | 454 ft | 59 kts | 113° |
| 2026-04-23 16:03 | 54.37676 | 18.46951 | 455 ft | 129 kts | 113° |
| 2026-04-23 16:03 | 54.37276 | 18.48562 | 811 ft | 148 kts | 108° |
| 2026-04-23 16:04 | 54.36866 | 18.50190 | 1515 ft | 149 kts | 108° |
| 2026-04-23 16:04 | 54.36451 | 18.51900 | 2082 ft | 165 kts | 109° |
| 2026-04-23 16:04 | 54.35977 | 18.53839 | 2578 ft | 187 kts | 109° |
| 2026-04-23 16:04 | 54.35442 | 18.56019 | 2965 ft | 210 kts | 110° |
| 2026-04-23 16:05 | 54.35049 | 18.57607 | 3283 ft | 226 kts | 110° |
| 2026-04-23 16:05 | 54.34186 | 18.61069 | 4271 ft | 243 kts | 110° |
| 2026-04-23 16:05 | 54.33664 | 18.63824 | 5240 ft | 244 kts | 91° |
| 2026-04-23 16:05 | 54.33901 | 18.66635 | 6158 ft | 237 kts | 60° |
| 2026-04-23 16:06 | 54.34848 | 18.68864 | 7059 ft | 230 kts | 33° |
| 2026-04-23 16:06 | 54.36244 | 18.70107 | 7858 ft | 232 kts | 10° |
| 2026-04-23 16:06 | 54.37896 | 18.70018 | 8370 ft | 249 kts | 341° |
| 2026-04-23 16:06 | 54.39358 | 18.68361 | 9171 ft | 260 kts | 315° |
| 2026-04-23 16:07 | 54.40530 | 18.65948 | 10102 ft | 266 kts | 313° |
| 2026-04-23 16:07 | 54.41740 | 18.63402 | 10558 ft | 287 kts | 313° |
| 2026-04-23 16:07 | 54.43057 | 18.60638 | 10860 ft | 310 kts | 313° |
| 2026-04-23 16:07 | 54.44440 | 18.57729 | 11441 ft | 321 kts | 313° |
| 2026-04-23 16:08 | 54.45858 | 18.54733 | 12236 ft | 325 kts | 313° |
| 2026-04-23 16:08 | 54.47294 | 18.51692 | 13061 ft | 328 kts | 314° |
| 2026-04-23 16:08 | 54.48739 | 18.48633 | 13898 ft | 331 kts | 314° |
| 2026-04-23 16:08 | 54.50181 | 18.45584 | 14615 ft | 333 kts | 314° |
| 2026-04-23 16:09 | 54.51651 | 18.42470 | 15347 ft | 336 kts | 314° |
| 2026-04-23 16:09 | 54.53132 | 18.39325 | 16059 ft | 339 kts | 314° |
| 2026-04-23 16:09 | 54.54632 | 18.36136 | 16766 ft | 342 kts | 314° |
| 2026-04-23 16:09 | 54.56138 | 18.32933 | 17464 ft | 345 kts | 314° |
| 2026-04-23 16:10 | 54.57642 | 18.29735 | 18154 ft | 348 kts | 314° |
| 2026-04-23 16:10 | 54.59181 | 18.26461 | 18793 ft | 352 kts | 314° |
| 2026-04-23 16:10 | 54.60714 | 18.23193 | 19406 ft | 354 kts | 314° |
| 2026-04-23 16:10 | 54.62272 | 18.19863 | 20028 ft | 357 kts | 314° |
| 2026-04-23 16:11 | 54.63832 | 18.16522 | 20636 ft | 360 kts | 314° |
| 2026-04-23 16:11 | 54.65414 | 18.13126 | 21241 ft | 363 kts | 314° |
| 2026-04-23 16:11 | 54.66990 | 18.09743 | 21811 ft | 366 kts | 314° |
| 2026-04-23 16:11 | 54.68594 | 18.06306 | 22373 ft | 369 kts | 313° |
| 2026-04-23 16:12 | 54.70209 | 18.02839 | 22931 ft | 372 kts | 313° |
| 2026-04-23 16:12 | 54.71842 | 17.99337 | 23469 ft | 375 kts | 313° |
| 2026-04-23 16:12 | 54.73483 | 17.95809 | 23934 ft | 378 kts | 313° |
| 2026-04-23 16:12 | 54.75121 | 17.92266 | 24363 ft | 381 kts | 313° |
| 2026-04-23 16:13 | 54.76781 | 17.88665 | 24803 ft | 383 kts | 313° |
| 2026-04-23 16:13 | 54.80545 | 17.82256 | 25613 ft | 380 kts | 329° |
| 2026-04-23 16:13 | 54.82861 | 17.80036 | 26033 ft | 379 kts | 338° |
| 2026-04-23 16:14 | 54.85283 | 17.78142 | 26461 ft | 381 kts | 338° |
| 2026-04-23 16:14 | 54.87687 | 17.76261 | 26877 ft | 383 kts | 338° |
| 2026-04-23 16:14 | 54.90134 | 17.74341 | 27281 ft | 386 kts | 338° |
| 2026-04-23 16:14 | 54.92588 | 17.72410 | 27684 ft | 388 kts | 338° |
| 2026-04-23 16:15 | 54.95025 | 17.70488 | 28076 ft | 390 kts | 338° |
| 2026-04-23 16:15 | 54.97518 | 17.68516 | 28458 ft | 392 kts | 338° |
| 2026-04-23 16:15 | 55.00022 | 17.66558 | 28832 ft | 394 kts | 339° |
| 2026-04-23 16:15 | 55.02513 | 17.64647 | 29194 ft | 396 kts | 339° |
| 2026-04-23 16:16 | 55.05063 | 17.62714 | 29558 ft | 398 kts | 339° |
| 2026-04-23 16:16 | 55.07588 | 17.60805 | 29904 ft | 400 kts | 340° |
| 2026-04-23 16:16 | 55.10161 | 17.58851 | 30238 ft | 403 kts | 339° |
| 2026-04-23 16:16 | 55.12740 | 17.56884 | 30519 ft | 405 kts | 339° |
| 2026-04-23 16:17 | 55.15302 | 17.54917 | 30818 ft | 406 kts | 339° |
| 2026-04-23 16:17 | 55.17884 | 17.52926 | 31224 ft | 405 kts | 339° |
| 2026-04-23 16:17 | 55.20472 | 17.50927 | 31634 ft | 404 kts | 339° |
| 2026-04-23 16:17 | 55.23023 | 17.48946 | 32041 ft | 403 kts | 339° |
| 2026-04-23 16:18 | 55.25574 | 17.46934 | 32444 ft | 402 kts | 339° |
| 2026-04-23 16:18 | 55.28126 | 17.44900 | 32864 ft | 401 kts | 339° |
| 2026-04-23 16:18 | 55.30644 | 17.42882 | 33260 ft | 400 kts | 339° |
| 2026-04-23 16:18 | 55.33186 | 17.40844 | 33673 ft | 399 kts | 339° |
| 2026-04-23 16:19 | 55.35690 | 17.38841 | 34082 ft | 398 kts | 339° |
| 2026-04-23 16:19 | 55.38212 | 17.36827 | 34452 ft | 398 kts | 339° |
| 2026-04-23 16:19 | 55.40731 | 17.34805 | 34785 ft | 397 kts | 339° |
| 2026-04-23 16:19 | 55.43251 | 17.32775 | 35126 ft | 397 kts | 339° |
| 2026-04-23 16:20 | 55.45765 | 17.30750 | 35457 ft | 397 kts | 339° |
| 2026-04-23 16:20 | 55.48259 | 17.28742 | 35771 ft | 397 kts | 339° |
| 2026-04-23 16:20 | 55.50784 | 17.26708 | 36069 ft | 397 kts | 339° |
| 2026-04-23 16:20 | 55.53274 | 17.24697 | 36366 ft | 396 kts | 339° |
| 2026-04-23 16:21 | 55.55789 | 17.22665 | 36667 ft | 396 kts | 339° |
| 2026-04-23 16:21 | 55.58311 | 17.20646 | 36957 ft | 395 kts | 341° |
| 2026-04-23 16:21 | 55.60903 | 17.19272 | 37078 ft | 391 kts | 352° |
| 2026-04-23 16:21 | 55.63605 | 17.18897 | 37101 ft | 388 kts | 3° |
| 2026-04-23 16:22 | 55.68812 | 17.21096 | 37098 ft | 389 kts | 24° |
| 2026-04-23 16:22 | 55.73588 | 17.25761 | 37102 ft | 391 kts | 27° |
| 2026-04-23 16:23 | 55.78305 | 17.30466 | 37099 ft | 391 kts | 27° |
| 2026-04-23 16:23 | 55.83068 | 17.35221 | 37097 ft | 391 kts | 27° |
| 2026-04-23 16:24 | 55.87805 | 17.39958 | 37101 ft | 391 kts | 27° |
| 2026-04-23 16:24 | 55.92525 | 17.44697 | 37099 ft | 391 kts | 27° |
| 2026-04-23 16:25 | 55.97267 | 17.49477 | 37099 ft | 390 kts | 27° |
| 2026-04-23 16:25 | 56.01983 | 17.54233 | 37096 ft | 390 kts | 27° |
| 2026-04-23 16:26 | 56.06715 | 17.59021 | 37096 ft | 390 kts | 27° |
| 2026-04-23 16:26 | 56.11423 | 17.63797 | 37092 ft | 390 kts | 27° |
| 2026-04-23 16:27 | 56.16162 | 17.68623 | 37091 ft | 390 kts | 27° |
| 2026-04-23 16:27 | 56.20869 | 17.73439 | 37091 ft | 390 kts | 27° |
| 2026-04-23 16:28 | 56.25571 | 17.78267 | 37094 ft | 390 kts | 27° |
| 2026-04-23 16:28 | 56.30281 | 17.83099 | 37087 ft | 390 kts | 27° |
| 2026-04-23 16:29 | 56.35021 | 17.87973 | 37089 ft | 390 kts | 27° |
| 2026-04-23 16:29 | 56.39719 | 17.92822 | 37085 ft | 390 kts | 27° |
| 2026-04-23 16:30 | 56.44434 | 17.97698 | 37083 ft | 390 kts | 27° |
| 2026-04-23 16:30 | 56.49152 | 18.02597 | 37082 ft | 390 kts | 27° |
| 2026-04-23 16:31 | 56.53855 | 18.07506 | 37076 ft | 390 kts | 28° |
| 2026-04-23 16:31 | 56.58556 | 18.12422 | 37077 ft | 390 kts | 28° |
| 2026-04-23 16:32 | 56.63231 | 18.17328 | 37072 ft | 389 kts | 28° |
| 2026-04-23 16:32 | 56.67925 | 18.22267 | 37074 ft | 389 kts | 28° |
| 2026-04-23 16:33 | 56.72620 | 18.27205 | 37072 ft | 389 kts | 28° |
| 2026-04-23 16:33 | 56.77288 | 18.32136 | 37068 ft | 389 kts | 28° |
| 2026-04-23 16:34 | 56.81956 | 18.37083 | 37068 ft | 388 kts | 28° |
| 2026-04-23 16:34 | 56.86618 | 18.42036 | 37065 ft | 388 kts | 28° |
| 2026-04-23 16:35 | 56.91261 | 18.46987 | 37063 ft | 387 kts | 28° |
| 2026-04-23 16:35 | 56.95938 | 18.51980 | 37064 ft | 387 kts | 28° |
| 2026-04-23 16:36 | 57.00564 | 18.56946 | 37057 ft | 387 kts | 28° |
| 2026-04-23 16:36 | 57.05218 | 18.61965 | 37059 ft | 387 kts | 28° |
| 2026-04-23 16:37 | 57.09839 | 18.66948 | 37053 ft | 386 kts | 28° |
| 2026-04-23 16:37 | 57.14484 | 18.71966 | 37051 ft | 386 kts | 28° |
| 2026-04-23 16:38 | 57.19128 | 18.77001 | 37050 ft | 386 kts | 28° |
| 2026-04-23 16:38 | 57.23727 | 18.82012 | 37054 ft | 386 kts | 28° |
| 2026-04-23 16:39 | 57.28358 | 18.87076 | 37047 ft | 386 kts | 28° |
| 2026-04-23 16:39 | 57.32964 | 18.92111 | 37057 ft | 385 kts | 28° |
| 2026-04-23 16:40 | 57.37582 | 18.97177 | 37048 ft | 385 kts | 28° |
| 2026-04-23 16:40 | 57.42172 | 19.02233 | 37040 ft | 385 kts | 28° |
| 2026-04-23 16:41 | 57.46778 | 19.07328 | 37046 ft | 386 kts | 28° |
| 2026-04-23 16:41 | 57.51405 | 19.12460 | 37042 ft | 386 kts | 28° |
| 2026-04-23 16:42 | 57.55986 | 19.17549 | 37037 ft | 385 kts | 28° |
| 2026-04-23 16:42 | 57.60604 | 19.22687 | 37038 ft | 385 kts | 28° |
| 2026-04-23 16:43 | 57.65190 | 19.27805 | 37036 ft | 385 kts | 28° |
| 2026-04-23 16:43 | 57.69792 | 19.32969 | 37036 ft | 385 kts | 28° |
| 2026-04-23 16:44 | 57.74392 | 19.38140 | 37032 ft | 384 kts | 28° |
| 2026-04-23 16:44 | 57.78963 | 19.43301 | 37033 ft | 384 kts | 28° |
| 2026-04-23 16:45 | 57.83519 | 19.48478 | 37034 ft | 384 kts | 28° |
| 2026-04-23 16:45 | 57.88103 | 19.53670 | 37029 ft | 383 kts | 28° |
| 2026-04-23 16:46 | 57.92677 | 19.58854 | 37028 ft | 383 kts | 28° |
| 2026-04-23 16:46 | 57.97217 | 19.64028 | 37024 ft | 383 kts | 28° |
| 2026-04-23 16:47 | 58.01784 | 19.69267 | 37025 ft | 383 kts | 29° |
| 2026-04-23 16:47 | 58.06325 | 19.74493 | 37022 ft | 383 kts | 28° |
| 2026-04-23 16:48 | 58.10114 | 19.78856 | 37017 ft | 383 kts | 29° |
| 2026-04-23 16:48 | 58.15419 | 19.84981 | 37021 ft | 383 kts | 28° |
| 2026-04-23 16:49 | 58.19205 | 19.89362 | 37014 ft | 383 kts | 29° |
| 2026-04-23 16:49 | 58.23749 | 19.94646 | 37014 ft | 382 kts | 29° |
| 2026-04-23 16:50 | 58.28279 | 19.99928 | 37015 ft | 382 kts | 29° |
| 2026-04-23 16:50 | 58.32805 | 20.05220 | 37015 ft | 381 kts | 28° |
| 2026-04-23 16:51 | 58.37321 | 20.10517 | 37007 ft | 381 kts | 29° |
| 2026-04-23 16:51 | 58.41811 | 20.15800 | 37015 ft | 380 kts | 28° |
| 2026-04-23 16:52 | 58.46314 | 20.21110 | 37003 ft | 379 kts | 28° |
| 2026-04-23 16:52 | 58.50781 | 20.26392 | 37000 ft | 379 kts | 28° |
| 2026-04-23 16:53 | 58.55269 | 20.31717 | 36998 ft | 378 kts | 28° |
| 2026-04-23 16:53 | 58.59719 | 20.37019 | 37011 ft | 378 kts | 28° |
| 2026-04-23 16:54 | 58.64178 | 20.42348 | 37017 ft | 378 kts | 28° |
| 2026-04-23 16:54 | 58.68642 | 20.47688 | 37015 ft | 377 kts | 28° |
| 2026-04-23 16:55 | 58.73104 | 20.53029 | 37009 ft | 376 kts | 28° |
| 2026-04-23 16:55 | 58.77542 | 20.58377 | 37011 ft | 376 kts | 28° |
| 2026-04-23 16:56 | 58.81963 | 20.63737 | 37001 ft | 376 kts | 28° |
| 2026-04-23 16:56 | 58.86382 | 20.69101 | 36995 ft | 375 kts | 28° |
| 2026-04-23 16:57 | 58.90793 | 20.74457 | 36997 ft | 375 kts | 28° |
| 2026-04-23 16:57 | 58.95215 | 20.79850 | 36989 ft | 375 kts | 28° |
| 2026-04-23 16:58 | 58.99632 | 20.85247 | 36980 ft | 375 kts | 28° |
| 2026-04-23 16:58 | 59.03944 | 20.91008 | 36974 ft | 381 kts | 37° |
| 2026-04-23 16:59 | 59.07228 | 20.99313 | 36964 ft | 395 kts | 51° |
| 2026-04-23 16:59 | 59.10074 | 21.08393 | 36961 ft | 395 kts | 51° |
| 2026-04-23 17:00 | 59.12943 | 21.17523 | 36956 ft | 396 kts | 51° |
| 2026-04-23 17:00 | 59.15821 | 21.26704 | 36955 ft | 397 kts | 50° |
| 2026-04-23 17:01 | 59.18699 | 21.35932 | 36947 ft | 397 kts | 51° |
| 2026-04-23 17:01 | 59.21539 | 21.45116 | 36952 ft | 398 kts | 51° |
| 2026-04-23 17:02 | 59.24394 | 21.54372 | 36957 ft | 398 kts | 51° |
| 2026-04-23 17:02 | 59.27251 | 21.63683 | 36952 ft | 399 kts | 51° |
| 2026-04-23 17:03 | 59.30111 | 21.73013 | 36953 ft | 399 kts | 51° |
| 2026-04-23 17:03 | 59.32939 | 21.82308 | 36950 ft | 400 kts | 51° |
| 2026-04-23 17:04 | 59.35777 | 21.91684 | 36946 ft | 400 kts | 51° |
| 2026-04-23 17:04 | 59.38625 | 22.01061 | 36651 ft | 399 kts | 51° |
| 2026-04-23 17:05 | 59.40045 | 22.05746 | 35898 ft | 401 kts | 51° |
| 2026-04-23 17:05 | 59.41474 | 22.10471 | 35132 ft | 403 kts | 51° |
| 2026-04-23 17:05 | 59.42903 | 22.15216 | 34354 ft | 405 kts | 51° |
| 2026-04-23 17:05 | 59.44330 | 22.19968 | 33538 ft | 407 kts | 51° |
| 2026-04-23 17:06 | 59.45778 | 22.24793 | 32623 ft | 410 kts | 51° |
| 2026-04-23 17:06 | 59.47227 | 22.29636 | 31718 ft | 412 kts | 52° |
| 2026-04-23 17:06 | 59.48684 | 22.34521 | 30806 ft | 414 kts | 51° |
| 2026-04-23 17:06 | 59.50185 | 22.39374 | 29875 ft | 415 kts | 50° |
| 2026-04-23 17:07 | 59.51728 | 22.44172 | 29030 ft | 412 kts | 50° |
| 2026-04-23 17:07 | 59.53276 | 22.48902 | 28182 ft | 409 kts | 49° |
| 2026-04-23 17:07 | 59.54824 | 22.53600 | 27412 ft | 406 kts | 49° |
| 2026-04-23 17:07 | 59.56356 | 22.58271 | 26672 ft | 403 kts | 49° |
| 2026-04-23 17:08 | 59.57851 | 22.62861 | 25975 ft | 400 kts | 49° |
| 2026-04-23 17:08 | 59.59348 | 22.67507 | 25290 ft | 397 kts | 49° |
| 2026-04-23 17:08 | 59.60804 | 22.72063 | 24624 ft | 394 kts | 49° |
| 2026-04-23 17:08 | 59.62261 | 22.76640 | 23961 ft | 391 kts | 49° |
| 2026-04-23 17:09 | 59.63706 | 22.81184 | 23284 ft | 388 kts | 49° |
| 2026-04-23 17:09 | 59.65133 | 22.85678 | 22584 ft | 385 kts | 49° |
| 2026-04-23 17:09 | 59.66552 | 22.90149 | 21973 ft | 381 kts | 49° |
| 2026-04-23 17:09 | 59.67950 | 22.94561 | 21397 ft | 377 kts | 49° |
| 2026-04-23 17:10 | 59.69339 | 22.98952 | 20839 ft | 373 kts | 49° |
| 2026-04-23 17:10 | 59.70692 | 23.03248 | 20324 ft | 370 kts | 49° |
| 2026-04-23 17:10 | 59.72047 | 23.07552 | 19810 ft | 366 kts | 49° |
| 2026-04-23 17:10 | 59.73389 | 23.11819 | 19338 ft | 363 kts | 49° |
| 2026-04-23 17:11 | 59.74718 | 23.16047 | 18850 ft | 360 kts | 48° |
| 2026-04-23 17:11 | 59.76034 | 23.20241 | 18364 ft | 357 kts | 48° |
| 2026-04-23 17:11 | 59.77339 | 23.24401 | 17832 ft | 354 kts | 48° |
| 2026-04-23 17:11 | 59.78632 | 23.28537 | 17275 ft | 351 kts | 49° |
| 2026-04-23 17:12 | 59.79914 | 23.32656 | 16715 ft | 349 kts | 49° |
| 2026-04-23 17:12 | 59.81183 | 23.36740 | 16163 ft | 346 kts | 49° |
| 2026-04-23 17:12 | 59.82445 | 23.40793 | 15605 ft | 344 kts | 49° |
| 2026-04-23 17:12 | 59.83706 | 23.44847 | 15066 ft | 341 kts | 49° |
| 2026-04-23 17:13 | 59.84946 | 23.48849 | 14526 ft | 339 kts | 50° |
| 2026-04-23 17:13 | 59.86179 | 23.52838 | 14005 ft | 337 kts | 50° |
| 2026-04-23 17:13 | 59.87386 | 23.56751 | 13452 ft | 335 kts | 50° |
| 2026-04-23 17:13 | 59.88604 | 23.60693 | 12886 ft | 333 kts | 50° |
| 2026-04-23 17:14 | 59.89814 | 23.64616 | 12362 ft | 332 kts | 50° |
| 2026-04-23 17:14 | 59.91014 | 23.68515 | 11860 ft | 328 kts | 51° |
| 2026-04-23 17:14 | 59.92186 | 23.72347 | 11481 ft | 320 kts | 51° |
| 2026-04-23 17:14 | 59.93324 | 23.76089 | 11159 ft | 311 kts | 51° |
| 2026-04-23 17:15 | 59.94430 | 23.79733 | 10863 ft | 303 kts | 51° |
| 2026-04-23 17:15 | 59.95513 | 23.83298 | 10565 ft | 295 kts | 51° |
| 2026-04-23 17:15 | 59.96566 | 23.86759 | 10295 ft | 288 kts | 51° |
| 2026-04-23 17:15 | 59.97592 | 23.90132 | 10051 ft | 281 kts | 51° |
| 2026-04-23 17:16 | 59.98595 | 23.93435 | 9820 ft | 274 kts | 50° |
| 2026-04-23 17:16 | 59.99572 | 23.96655 | 9549 ft | 268 kts | 50° |
| 2026-04-23 17:16 | 60.00530 | 23.99810 | 9223 ft | 264 kts | 50° |
| 2026-04-23 17:16 | 60.01478 | 24.02933 | 8848 ft | 262 kts | 51° |
| 2026-04-23 17:17 | 60.02419 | 24.06033 | 8449 ft | 260 kts | 51° |
| 2026-04-23 17:17 | 60.03352 | 24.09118 | 8052 ft | 259 kts | 51° |
| 2026-04-23 17:17 | 60.03966 | 24.11153 | 7789 ft | 258 kts | 51° |
| 2026-04-23 17:17 | 60.05198 | 24.15244 | 7254 ft | 255 kts | 52° |
| 2026-04-23 17:18 | 60.07017 | 24.21297 | 6513 ft | 252 kts | 52° |
| 2026-04-23 17:18 | 60.07913 | 24.24280 | 6188 ft | 251 kts | 53° |
| 2026-04-23 17:18 | 60.08813 | 24.27284 | 5847 ft | 250 kts | 53° |
| 2026-04-23 17:19 | 60.09707 | 24.30272 | 5501 ft | 250 kts | 53° |
| 2026-04-23 17:19 | 60.10597 | 24.33249 | 5157 ft | 249 kts | 53° |
| 2026-04-23 17:19 | 60.11484 | 24.36220 | 4821 ft | 248 kts | 53° |
| 2026-04-23 17:19 | 60.12369 | 24.39192 | 4473 ft | 248 kts | 53° |
| 2026-04-23 17:20 | 60.13252 | 24.42166 | 4130 ft | 247 kts | 53° |
| 2026-04-23 17:20 | 60.15014 | 24.48100 | 3448 ft | 248 kts | 53° |
| 2026-04-23 17:21 | 60.16782 | 24.54064 | 2777 ft | 249 kts | 53° |
| 2026-04-23 17:21 | 60.17668 | 24.57063 | 2521 ft | 249 kts | 53° |
| 2026-04-23 17:21 | 60.19369 | 24.62854 | 2306 ft | 228 kts | 53° |
| 2026-04-23 17:22 | 60.20161 | 24.65546 | 2304 ft | 221 kts | 52° |
| 2026-04-23 17:22 | 60.21970 | 24.70015 | 2306 ft | 191 kts | 40° |
| 2026-04-23 17:23 | 60.23696 | 24.73774 | 2308 ft | 177 kts | 40° |
| 2026-04-23 17:23 | 60.24504 | 24.75537 | 2247 ft | 169 kts | 40° |
| 2026-04-23 17:23 | 60.26026 | 24.78866 | 1800 ft | 144 kts | 39° |
| 2026-04-23 17:24 | 60.26665 | 24.80268 | 1608 ft | 130 kts | 38° |
| 2026-04-23 17:24 | 60.27258 | 24.81562 | 1462 ft | 126 kts | 39° |
| 2026-04-23 17:24 | 60.28427 | 24.84109 | 1097 ft | 124 kts | 39° |
| 2026-04-23 17:25 | 60.29625 | 24.86720 | 711 ft | 127 kts | 43° |
| 2026-04-23 17:25 | 60.30228 | 24.88051 | 521 ft | 129 kts | 42° |
| 2026-04-23 17:26 | 60.31445 | 24.90725 | 209 ft | 129 kts | 43° |
| 2026-04-23 17:26 | 60.32369 | 24.92751 | 196 ft | 73 kts | 48° |
| 2026-04-23 17:27 | 60.32953 | 24.94033 | 188 ft | 46 kts | 47° |
| 2026-04-23 17:27 | 60.33049 | 24.94363 | 190 ft | 25 kts | 90° |
| 2026-04-23 17:27 | 60.33032 | 24.94660 | 193 ft | 17 kts | 124° |
| 2026-04-23 17:27 | 60.32942 | 24.94823 | 192 ft | 18 kts | 138° |
| 2026-04-23 17:28 | 60.32834 | 24.94951 | 194 ft | 20 kts | 163° |
| 2026-04-23 17:28 | 60.32689 | 24.95046 | 192 ft | 23 kts | 162° |
| 2026-04-23 17:28 | 60.32532 | 24.95147 | 191 ft | 24 kts | 162° |
| 2026-04-23 17:28 | 60.32378 | 24.95249 | 199 ft | 21 kts | 161° |
| 2026-04-23 17:29 | 60.32273 | 24.95391 | 194 ft | 15 kts | 136° |
| 2026-04-23 17:29 | 60.32214 | 24.95498 | 192 ft | 9 kts | 138° |
| 2026-04-23 17:29 | 60.32182 | 24.95557 | 191 ft | 0 kts | 137° |
| 2026-04-23 17:31 | 60.32175 | 24.95571 | 196 ft | 4 kts | 137° |
| 2026-04-23 17:32 | 60.32155 | 24.95607 | 188 ft | 7 kts | 137° |
| 2026-04-23 17:32 | 60.32103 | 24.95704 | 187 ft | 13 kts | 137° |
| 2026-04-23 17:32 | 60.32040 | 24.95820 | 188 ft | 12 kts | 137° |
| 2026-04-23 17:32 | 60.31976 | 24.95938 | 188 ft | 13 kts | 137° |
| 2026-04-23 17:33 | 60.31907 | 24.96065 | 200 ft | 14 kts | 137° |
| 2026-04-23 17:33 | 60.31855 | 24.96211 | 193 ft | 12 kts | 101° |
| 2026-04-23 17:33 | 60.31839 | 24.96320 | 196 ft | 8 kts | 138° |
| 2026-04-23 17:33 | 60.31807 | 24.96378 | 193 ft | 3 kts | 137° |
| 2026-04-23 17:34 | 60.31802 | 24.96387 | 196 ft | 0 kts | 137° |